createdAt,value
2018-10-17T00:00:27.874Z,16.57
2018-10-17T00:02:56.165Z,16.37
2018-10-17T00:05:24.435Z,16.27
2018-10-17T00:07:53.099Z,15.73
2018-10-17T00:10:21.390Z,15.90
2018-10-17T00:12:50.182Z,14.43
2018-10-17T00:15:18.882Z,15.60
2018-10-17T00:17:47.159Z,15.57
2018-10-17T00:20:15.470Z,15.47
2018-10-17T00:22:43.811Z,15.20
2018-10-17T00:25:12.356Z,15.57
2018-10-17T00:27:40.862Z,14.40
2018-10-17T00:30:11.178Z,15.43
2018-10-17T00:32:40.109Z,14.83
2018-10-17T00:35:09.169Z,15.37
2018-10-17T00:37:37.601Z,15.83
2018-10-17T00:40:06.099Z,15.70
2018-10-17T00:42:34.630Z,15.87
2018-10-17T00:45:03.028Z,15.97
2018-10-17T00:47:31.615Z,15.33
2018-10-17T00:49:59.974Z,15.43
2018-10-17T00:52:28.255Z,16.80
2018-10-17T00:54:56.942Z,15.90
2018-10-17T00:57:25.447Z,16.27
2018-10-17T00:59:53.741Z,16.33
2018-10-17T01:02:22.718Z,15.53
2018-10-17T01:04:51.579Z,15.60
2018-10-17T01:07:20.713Z,15.43
2018-10-17T01:09:49.038Z,14.73
2018-10-17T01:12:17.322Z,15.90
2018-10-17T01:14:45.932Z,15.80
2018-10-17T01:17:14.291Z,16.50
2018-10-17T01:19:42.736Z,15.00
2018-10-17T01:22:11.332Z,15.67
2018-10-17T01:24:39.854Z,15.17
2018-10-17T01:27:08.476Z,15.83
2018-10-17T01:29:36.895Z,16.17
2018-10-17T01:32:05.591Z,14.93
2018-10-17T01:34:34.358Z,15.07
2018-10-17T01:37:02.868Z,15.60
2018-10-17T01:39:32.011Z,15.03
2018-10-17T01:42:00.290Z,15.83
2018-10-17T01:44:28.914Z,15.70
2018-10-17T01:46:57.206Z,16.03
2018-10-17T01:49:25.821Z,14.97
2018-10-17T01:51:54.506Z,15.47
2018-10-17T01:54:23.006Z,16.13
2018-10-17T01:56:51.725Z,15.77
2018-10-17T01:59:20.187Z,15.10
2018-10-17T02:01:48.475Z,16.50
2018-10-17T02:04:16.754Z,15.03
2018-10-17T02:06:45.026Z,15.37
2018-10-17T02:09:13.463Z,15.73
2018-10-17T02:11:41.898Z,15.17
2018-10-17T02:14:10.187Z,15.40
2018-10-17T02:16:38.496Z,15.47
2018-10-17T02:19:07.153Z,15.47
2018-10-17T02:21:35.600Z,15.67
2018-10-17T02:24:04.398Z,15.47
2018-10-17T02:26:32.718Z,15.43
2018-10-17T02:29:01.033Z,15.53
2018-10-17T02:31:29.476Z,15.77
2018-10-17T02:33:57.759Z,14.80
2018-10-17T02:36:26.070Z,15.87
2018-10-17T02:38:54.504Z,15.67
2018-10-17T02:41:22.809Z,15.77
2018-10-17T02:43:51.098Z,16.33
2018-10-17T02:46:19.820Z,16.10
2018-10-17T02:48:48.491Z,16.47
2018-10-17T02:51:16.749Z,16.30
2018-10-17T02:53:45.096Z,16.80
2018-10-17T02:56:13.407Z,16.23
2018-10-17T02:58:41.692Z,17.60
2018-10-17T03:01:10.093Z,17.17
2018-10-17T03:03:39.447Z,15.93
2018-10-17T03:06:07.731Z,16.97
2018-10-17T03:08:36.162Z,16.80
2018-10-17T03:11:05.577Z,16.57
2018-10-17T03:13:34.034Z,17.23
2018-10-17T03:16:03.774Z,15.93
2018-10-17T03:18:32.895Z,16.37
2018-10-17T03:21:01.174Z,16.30
2018-10-17T03:23:29.466Z,17.33
2018-10-17T03:25:57.827Z,16.47
2018-10-17T03:28:26.339Z,17.60
2018-10-17T03:30:54.798Z,17.73
2018-10-17T03:33:23.271Z,16.67
2018-10-17T03:35:51.626Z,17.80
2018-10-17T03:38:20.116Z,17.13
2018-10-17T03:40:48.732Z,16.60
2018-10-17T03:43:17.286Z,18.33
2018-10-17T03:45:46.040Z,16.10
2018-10-17T03:48:14.344Z,16.80
2018-10-17T03:50:42.742Z,18.10
2018-10-17T03:53:11.079Z,17.90
2018-10-17T03:55:39.544Z,17.57
2018-10-17T03:58:07.873Z,17.33
2018-10-17T04:00:36.259Z,16.47
2018-10-17T04:03:05.725Z,16.57
2018-10-17T04:05:34.227Z,16.63
2018-10-17T04:08:02.506Z,17.30
2018-10-17T04:10:30.779Z,17.53
2018-10-17T04:12:59.077Z,16.67
2018-10-17T04:15:27.669Z,15.77
2018-10-17T04:17:56.049Z,16.63
2018-10-17T04:20:24.347Z,16.63
2018-10-17T04:22:55.280Z,16.47
2018-10-17T04:25:23.945Z,16.63
2018-10-17T04:27:53.163Z,16.93
2018-10-17T04:30:21.509Z,15.70
2018-10-17T04:32:49.842Z,15.33
2018-10-17T04:35:18.719Z,16.40
2018-10-17T04:37:47.754Z,16.13
2018-10-17T04:40:16.070Z,16.40
2018-10-17T04:42:44.490Z,17.23
2018-10-17T04:45:12.892Z,16.43
2018-10-17T04:47:41.248Z,17.00
2018-10-17T04:50:12.032Z,17.13
2018-10-17T04:52:40.718Z,17.70
2018-10-17T04:55:10.218Z,16.70
2018-10-17T04:57:38.702Z,17.27
2018-10-17T05:00:10.491Z,17.40
2018-10-17T05:02:39.363Z,17.80
2018-10-17T05:05:08.118Z,17.73
2018-10-17T05:07:36.585Z,17.67
2018-10-17T05:10:05.165Z,16.83
2018-10-17T05:12:33.812Z,17.83
2018-10-17T05:15:02.105Z,18.53
2018-10-17T05:17:30.665Z,17.80
2018-10-17T05:19:59.431Z,18.23
2018-10-17T05:22:27.744Z,18.20
2018-10-17T05:24:56.104Z,24.17
2018-10-17T05:27:24.619Z,29.77
2018-10-17T05:29:53.081Z,41.67
2018-10-17T05:32:21.458Z,31.67
2018-10-17T05:34:49.884Z,31.50
2018-10-17T05:37:18.631Z,23.70
2018-10-17T05:39:47.095Z,21.33
2018-10-17T05:42:15.431Z,20.47
2018-10-17T05:44:44.049Z,17.10
2018-10-17T05:47:12.627Z,18.60
2018-10-17T05:49:41.248Z,23.27
2018-10-17T05:52:09.660Z,22.77
2018-10-17T05:54:37.978Z,21.10
2018-10-17T05:57:06.359Z,21.00
2018-10-17T05:59:34.655Z,20.60
2018-10-17T06:02:07.763Z,20.07
2018-10-17T06:04:36.247Z,21.13
2018-10-17T06:07:04.772Z,18.10
2018-10-17T06:09:33.208Z,19.93
2018-10-17T06:12:01.635Z,19.73
2018-10-17T06:14:30.015Z,18.67
2018-10-17T06:16:58.430Z,19.47
2018-10-17T06:19:26.874Z,20.17
2018-10-17T06:21:55.182Z,19.17
2018-10-17T06:24:23.570Z,25.73
2018-10-17T06:26:51.923Z,55.17
2018-10-17T06:29:20.332Z,52.30
2018-10-17T06:31:48.662Z,37.43
2018-10-17T06:34:17.108Z,30.17
2018-10-17T06:36:45.669Z,26.53
2018-10-17T06:39:13.958Z,21.53
2018-10-17T06:41:42.323Z,18.17
2018-10-17T06:44:10.882Z,20.13
2018-10-17T06:46:39.307Z,17.13
2018-10-17T06:49:08.096Z,17.80
2018-10-17T06:51:36.544Z,17.23
2018-10-17T06:54:05.129Z,17.17
2018-10-17T06:56:33.998Z,20.57
2018-10-17T06:59:02.494Z,27.60
2018-10-17T07:01:31.018Z,23.43
2018-10-17T07:04:00.074Z,23.27
2018-10-17T07:06:28.383Z,20.27
2018-10-17T07:08:56.702Z,18.10
2018-10-17T07:11:24.983Z,17.37
2018-10-17T07:13:53.542Z,17.47
2018-10-17T07:16:22.303Z,16.67
2018-10-17T07:18:50.602Z,16.17
2018-10-17T07:21:18.952Z,15.93
2018-10-17T07:23:47.258Z,17.27
2018-10-17T07:26:15.608Z,16.23
2018-10-17T07:28:44.056Z,17.10
2018-10-17T07:31:12.610Z,16.77
2018-10-17T07:33:41.172Z,15.80
2018-10-17T07:36:09.511Z,15.30
2018-10-17T07:38:37.999Z,16.60
2018-10-17T07:41:06.756Z,15.87
2018-10-17T07:43:35.074Z,15.50
2018-10-17T07:46:03.454Z,16.20
2018-10-17T07:48:31.734Z,15.33
2018-10-17T07:51:00.347Z,15.50
2018-10-17T07:53:28.682Z,15.43
2018-10-17T07:55:57.170Z,15.47
2018-10-17T07:58:25.518Z,14.50
2018-10-17T08:00:54.179Z,13.80
2018-10-17T08:03:22.875Z,14.83
2018-10-17T08:05:51.995Z,14.93
2018-10-17T08:08:20.321Z,14.47
2018-10-17T08:10:48.663Z,14.87
2018-10-17T08:13:16.968Z,14.30
2018-10-17T08:15:45.443Z,14.50
2018-10-17T08:18:14.212Z,15.27
2018-10-17T08:20:42.663Z,15.30
2018-10-17T08:23:10.982Z,14.23
2018-10-17T08:25:39.288Z,14.47
2018-10-17T08:28:07.610Z,14.93
2018-10-17T08:30:36.030Z,14.10
2018-10-17T08:33:04.488Z,14.43
2018-10-17T08:35:32.906Z,15.67
2018-10-17T08:38:01.636Z,15.70
2018-10-17T08:40:30.154Z,15.80
2018-10-17T08:42:58.557Z,15.33
2018-10-17T08:45:26.982Z,14.67
2018-10-17T08:47:55.410Z,14.03
2018-10-17T08:50:23.722Z,14.17
2018-10-17T08:52:52.003Z,12.60
2018-10-17T08:55:20.346Z,13.13
2018-10-17T08:57:48.674Z,11.87
2018-10-17T09:00:17.529Z,12.67
2018-10-17T09:02:46.279Z,12.83
2018-10-17T09:05:14.694Z,12.80
2018-10-17T09:07:43.079Z,12.07
2018-10-17T09:10:11.952Z,12.40
2018-10-17T09:12:40.281Z,12.37
2018-10-17T09:15:08.779Z,12.03
2018-10-17T09:17:37.246Z,12.07
2018-10-17T09:20:07.853Z,12.60
2018-10-17T09:22:36.207Z,12.87
2018-10-17T09:25:05.155Z,12.13
2018-10-17T09:27:33.804Z,12.67
2018-10-17T09:30:02.175Z,13.00
2018-10-17T09:32:30.663Z,12.83
2018-10-17T09:34:59.107Z,13.00
2018-10-17T09:37:27.711Z,12.80
2018-10-17T09:39:56.105Z,12.43
2018-10-17T09:42:24.578Z,12.20
2018-10-17T09:44:53.182Z,12.17
2018-10-17T09:47:21.483Z,12.47
2018-10-17T09:49:50.147Z,11.77
2018-10-17T09:52:18.670Z,11.37
2018-10-17T09:54:47.077Z,11.63
2018-10-17T09:57:15.362Z,11.27
2018-10-17T09:59:43.688Z,11.03
2018-10-17T10:02:12.034Z,10.17
2018-10-17T10:04:40.551Z,10.80
2018-10-17T10:07:08.999Z,10.57
2018-10-17T10:09:36.531Z,10.40
2018-10-17T10:12:05.190Z,10.33
2018-10-17T10:14:33.684Z,10.07
2018-10-17T10:17:02.089Z,10.67
2018-10-17T10:19:30.542Z,10.47
2018-10-17T10:21:58.981Z,10.33
2018-10-17T10:24:27.524Z,9.07
2018-10-17T10:26:56.253Z,9.70
2018-10-17T10:29:31.360Z,9.80
2018-10-17T10:31:59.958Z,9.90
2018-10-17T10:34:28.298Z,10.30
2018-10-17T10:36:56.594Z,10.23
2018-10-17T10:39:24.907Z,10.47
2018-10-17T10:41:53.219Z,10.47
2018-10-17T10:44:21.734Z,10.90
2018-10-17T10:46:50.076Z,11.23
2018-10-17T10:49:18.557Z,12.40
2018-10-17T10:51:47.025Z,11.17
2018-10-17T10:54:15.493Z,10.30
2018-10-17T10:56:43.890Z,11.20
2018-10-17T10:59:12.189Z,11.53
2018-10-17T11:01:41.072Z,12.37
2018-10-17T11:04:09.447Z,12.77
2018-10-17T11:06:37.870Z,12.27
2018-10-17T11:09:07.576Z,13.10
2018-10-17T11:11:36.608Z,12.90
2018-10-17T11:14:05.111Z,13.10
2018-10-17T11:16:33.462Z,11.73
2018-10-17T11:19:02.393Z,11.57
2018-10-17T11:21:31.274Z,10.73
2018-10-17T11:23:59.726Z,10.27
2018-10-17T11:26:28.739Z,9.93
2018-10-17T11:28:57.687Z,10.10
2018-10-17T11:31:26.235Z,9.60
2018-10-17T11:33:55.291Z,9.65
2018-10-17T11:36:23.590Z,9.70
2018-10-17T11:38:52.161Z,9.60
2018-10-17T11:41:20.944Z,9.60
2018-10-17T11:43:50.130Z,9.05
2018-10-17T11:46:18.485Z,9.30
2018-10-17T11:48:47.418Z,10.72
2018-10-17T11:51:16.460Z,9.95
2018-10-17T11:53:44.955Z,10.40
2018-10-17T11:56:13.306Z,10.00
2018-10-17T11:58:42.294Z,10.25
2018-10-17T12:01:11.266Z,9.23
2018-10-17T12:03:39.678Z,9.85
2018-10-17T12:06:08.747Z,11.30
2018-10-17T12:08:37.728Z,9.88
2018-10-17T12:11:06.277Z,10.20
2018-10-17T12:13:35.276Z,11.22
2018-10-17T12:16:03.610Z,10.73
2018-10-17T12:18:32.235Z,10.43
2018-10-17T12:21:00.731Z,9.53
2018-10-17T12:23:29.099Z,10.10
2018-10-17T12:25:58.065Z,9.73
2018-10-17T12:28:27.085Z,10.28
2018-10-17T12:30:55.493Z,9.10
2018-10-17T12:33:24.439Z,10.93
2018-10-17T12:35:53.436Z,9.90
2018-10-17T12:38:21.803Z,9.93
2018-10-17T12:40:50.603Z,10.28
2018-10-17T12:43:19.504Z,10.18
2018-10-17T12:45:48.436Z,9.78
2018-10-17T12:48:17.234Z,10.20
2018-10-17T12:50:46.735Z,9.30
2018-10-17T12:53:15.599Z,8.63
2018-10-17T12:55:44.866Z,8.98
2018-10-17T12:58:13.258Z,8.30
2018-10-17T13:00:41.722Z,8.70
2018-10-17T13:03:10.046Z,8.13
2018-10-17T13:05:38.334Z,7.53
2018-10-17T13:08:07.580Z,7.78
2018-10-17T13:10:36.238Z,8.00
2018-10-17T13:13:05.538Z,7.85
2018-10-17T13:15:34.350Z,7.85
2018-10-17T13:18:03.223Z,9.10
2018-10-17T13:20:31.518Z,7.53
2018-10-17T13:22:59.837Z,8.23
2018-10-17T13:25:28.293Z,8.30
2018-10-17T13:27:57.178Z,8.40
2018-10-17T13:30:26.053Z,9.38
2018-10-17T13:32:54.425Z,8.45
2018-10-17T13:35:22.772Z,8.37
2018-10-17T13:37:51.634Z,9.63
2018-10-17T13:40:19.924Z,9.90
2018-10-17T13:42:48.250Z,10.05
2018-10-17T13:45:16.535Z,10.20
2018-10-17T13:47:44.953Z,9.53
2018-10-17T13:50:13.861Z,9.00
2018-10-17T13:52:42.166Z,9.00
2018-10-17T13:55:11.075Z,9.48
2018-10-17T13:57:40.186Z,8.30
2018-10-17T14:00:10.889Z,8.67
2018-10-17T14:02:40.079Z,8.78
2018-10-17T14:05:08.683Z,8.60
2018-10-17T14:07:36.976Z,8.43
2018-10-17T14:10:05.455Z,9.23
2018-10-17T14:12:34.476Z,8.87
2018-10-17T14:15:03.236Z,9.60
2018-10-17T14:17:31.738Z,9.00
2018-10-17T14:20:00.863Z,8.87
2018-10-17T14:22:29.234Z,9.07
2018-10-17T14:24:57.641Z,9.37
2018-10-17T14:27:26.139Z,10.50
2018-10-17T14:29:58.439Z,11.40
2018-10-17T14:32:27.085Z,12.77
2018-10-17T14:34:55.433Z,13.37
2018-10-17T14:37:23.731Z,13.60
2018-10-17T14:39:52.212Z,14.17
2018-10-17T14:42:20.602Z,13.10
2018-10-17T14:44:49.046Z,12.93
2018-10-17T14:47:17.375Z,13.53
2018-10-17T14:49:45.900Z,13.97
2018-10-17T14:52:14.187Z,12.83
2018-10-17T14:54:42.507Z,14.27
2018-10-17T14:57:10.831Z,13.70
2018-10-17T14:59:39.146Z,14.53
2018-10-17T15:02:07.582Z,14.30
2018-10-17T15:04:35.928Z,13.43
2018-10-17T15:07:04.250Z,14.47
2018-10-17T15:09:32.566Z,14.53
2018-10-17T15:12:00.918Z,13.67
2018-10-17T15:14:29.307Z,13.93
2018-10-17T15:16:58.083Z,14.47
2018-10-17T15:19:26.663Z,14.90
2018-10-17T15:21:54.949Z,14.80
2018-10-17T15:24:23.230Z,14.83
2018-10-17T15:43:27.509Z,15.78
2018-10-17T15:48:53.779Z,14.50
2018-10-17T15:51:22.461Z,14.70
2018-10-17T15:53:51.244Z,14.93
2018-10-17T15:56:21.333Z,13.60
2018-10-17T15:58:50.989Z,13.37
2018-10-17T16:01:19.661Z,13.60
2018-10-17T16:03:48.879Z,14.93
2018-10-17T16:06:17.797Z,16.47
2018-10-17T16:08:53.118Z,15.97
2018-10-17T16:11:21.942Z,19.17
2018-10-17T16:13:50.913Z,17.10
2018-10-17T16:16:19.571Z,15.00
2018-10-17T16:18:48.215Z,14.80
2018-10-17T16:21:17.205Z,16.37
2018-10-17T16:23:45.922Z,22.17
2018-10-17T16:26:15.646Z,21.00
2018-10-17T16:28:45.026Z,20.27
2018-10-17T16:31:13.888Z,19.23
2018-10-17T16:33:42.696Z,17.63
2018-10-17T16:36:11.638Z,16.10
2018-10-17T16:38:40.600Z,16.30
2018-10-17T16:41:09.559Z,15.70
2018-10-17T16:43:39.942Z,16.83
2018-10-17T16:46:09.011Z,17.23
2018-10-17T16:48:37.722Z,19.37
2018-10-17T16:51:06.747Z,20.83
2018-10-17T16:53:35.554Z,21.73
2018-10-17T16:56:04.329Z,31.10
2018-10-17T16:58:33.098Z,26.90
2018-10-17T17:01:02.268Z,23.53
2018-10-17T17:03:31.027Z,25.60
2018-10-17T17:05:59.761Z,19.93
2018-10-17T17:08:28.438Z,20.27
2018-10-17T17:10:57.129Z,21.63
2018-10-17T17:13:25.822Z,22.43
2018-10-17T17:15:54.535Z,20.93
2018-10-17T17:18:23.275Z,26.93
2018-10-17T17:20:52.215Z,24.60
2018-10-17T17:23:21.222Z,32.07
2018-10-17T17:25:49.988Z,70.33
2018-10-17T17:28:18.659Z,62.27
2018-10-17T17:30:48.063Z,40.00
2018-10-17T17:33:16.765Z,30.97
2018-10-17T17:35:45.570Z,31.70
2018-10-17T17:38:14.313Z,31.33
2018-10-17T17:40:42.973Z,31.50
2018-10-17T17:43:11.790Z,31.07
2018-10-17T17:45:40.519Z,31.20
2018-10-17T17:48:09.217Z,31.13
2018-10-17T17:50:37.944Z,30.33
2018-10-17T17:53:06.586Z,28.50
2018-10-17T17:55:35.302Z,30.50
2018-10-17T17:58:04.136Z,34.57
2018-10-17T18:00:33.171Z,31.90
2018-10-17T18:03:02.002Z,32.10
2018-10-17T18:05:30.651Z,33.90
2018-10-17T18:07:59.308Z,33.43
2018-10-17T18:10:27.987Z,31.60
2018-10-17T18:12:56.630Z,31.00
2018-10-17T18:15:25.350Z,31.93
2018-10-17T18:17:54.103Z,31.07
2018-10-17T18:20:22.904Z,30.87
2018-10-17T18:22:51.570Z,30.40
2018-10-17T18:25:20.230Z,28.63
2018-10-17T18:27:49.446Z,27.10
2018-10-17T18:30:18.123Z,27.80
2018-10-17T18:32:46.779Z,27.47
2018-10-17T18:35:15.607Z,29.87
2018-10-17T18:37:44.368Z,28.83
2018-10-17T18:40:13.280Z,29.50
2018-10-17T18:42:42.211Z,28.97
2018-10-17T18:45:11.966Z,30.30
2018-10-17T18:47:40.877Z,31.30
2018-10-17T18:50:09.821Z,35.63
2018-10-17T18:52:38.939Z,44.40
2018-10-17T18:55:08.202Z,38.70
2018-10-17T18:57:37.004Z,37.97
2018-10-17T19:00:07.963Z,36.30
2018-10-17T19:02:36.674Z,32.03
2018-10-17T19:05:05.516Z,33.40
2018-10-17T19:07:34.187Z,34.53
2018-10-17T19:10:02.902Z,36.00
2018-10-17T19:12:31.616Z,35.30
2018-10-17T19:15:00.671Z,35.63
2018-10-17T19:17:29.538Z,34.70
2018-10-17T19:19:58.206Z,36.67
2018-10-17T19:22:29.121Z,33.53
2018-10-17T19:24:57.810Z,34.90
2018-10-17T19:27:27.120Z,34.67
2018-10-17T19:29:55.908Z,33.23
2018-10-17T19:32:25.142Z,33.47
2018-10-17T19:34:53.878Z,33.73
2018-10-17T19:37:22.729Z,33.57
2018-10-17T19:39:51.407Z,35.47
2018-10-17T19:42:20.098Z,38.43
2018-10-17T19:44:48.896Z,37.30
2018-10-17T19:47:17.752Z,38.43
2018-10-17T19:49:46.607Z,37.03
2018-10-17T19:52:15.451Z,39.10
2018-10-17T19:54:44.147Z,36.57
2018-10-17T19:57:13.010Z,36.57
2018-10-17T19:59:42.093Z,37.23
2018-10-17T20:02:10.927Z,36.50
2018-10-17T20:04:39.819Z,37.00
2018-10-17T20:07:08.828Z,37.57
2018-10-17T20:09:37.646Z,37.93
2018-10-17T20:12:07.782Z,38.97
2018-10-17T20:14:36.554Z,38.67
2018-10-17T20:17:06.187Z,42.13
2018-10-17T20:19:34.934Z,39.03
2018-10-17T20:22:03.723Z,38.93
2018-10-17T20:24:32.558Z,38.27
2018-10-17T20:27:03.465Z,38.97
2018-10-17T20:29:32.479Z,38.37
2018-10-17T20:32:01.362Z,39.67
2018-10-17T20:34:30.215Z,39.70
2018-10-17T20:36:59.117Z,40.50
2018-10-17T20:39:28.032Z,38.87
2018-10-17T20:41:56.905Z,38.27
2018-10-17T20:44:25.841Z,40.40
2018-10-17T20:46:54.653Z,40.67
2018-10-17T20:49:23.460Z,40.33
2018-10-17T20:51:52.193Z,40.97
